createdAt,value
2019-05-14T00:01:48.026Z,99678.17
2019-05-14T00:04:16.748Z,99669.60
2019-05-14T00:06:45.574Z,99674.06
2019-05-14T00:09:14.301Z,99677.39
2019-05-14T00:11:43.026Z,99674.69
2019-05-14T00:14:11.928Z,99669.28
2019-05-14T00:16:42.405Z,99652.14
2019-05-14T00:19:11.387Z,99649.80
2019-05-14T00:21:42.271Z,99660.92
2019-05-14T00:24:11.365Z,99672.45
2019-05-14T00:26:42.555Z,99673.23
2019-05-14T00:29:11.513Z,99679.81
2019-05-14T00:31:42.427Z,99682.27
2019-05-14T00:34:11.292Z,99688.61
2019-05-14T00:36:41.609Z,99689.84
2019-05-14T00:39:11.326Z,99691.80
2019-05-14T00:41:41.995Z,99683.81
2019-05-14T00:44:10.853Z,99686.77
2019-05-14T00:46:41.087Z,99689.78
2019-05-14T00:49:11.878Z,99679.40
2019-05-14T00:51:41.273Z,99679.65
2019-05-14T00:54:11.232Z,99684.83
2019-05-14T00:56:41.727Z,99698.72
2019-05-14T00:59:11.354Z,99696.94
2019-05-14T01:01:42.295Z,99692.01
2019-05-14T01:04:11.822Z,99690.91
2019-05-14T01:06:42.049Z,99679.22
2019-05-14T01:09:11.496Z,99687.63
2019-05-14T01:11:42.068Z,99688.70
2019-05-14T01:14:12.276Z,99675.56
2019-05-14T01:16:42.412Z,99673.78
2019-05-14T01:19:12.368Z,99674.77
2019-05-14T01:21:41.818Z,99669.55
2019-05-14T01:24:12.623Z,99669.99
2019-05-14T01:26:41.610Z,99668.94
2019-05-14T01:29:11.946Z,99664.26
2019-05-14T01:31:41.803Z,99662.70
2019-05-14T01:34:11.226Z,99656.55
2019-05-14T01:36:41.383Z,99653.20
2019-05-14T01:39:12.143Z,99648.73
2019-05-14T01:41:42.322Z,99657.91
2019-05-14T01:44:11.964Z,99656.56
2019-05-14T01:46:42.020Z,99659.19
2019-05-14T01:49:12.054Z,99674.05
2019-05-14T01:51:42.343Z,99669.68
2019-05-14T01:54:11.912Z,99672.17
2019-05-14T01:56:42.327Z,99668.81
2019-05-14T01:59:12.116Z,99673.92
2019-05-14T02:01:41.621Z,99671.04
2019-05-14T02:04:11.597Z,99677.22
2019-05-14T02:06:41.383Z,99681.98
2019-05-14T02:09:11.110Z,99673.86
2019-05-14T02:11:41.544Z,99664.78
2019-05-14T02:14:11.692Z,99663.30
2019-05-14T02:16:42.322Z,99659.88
2019-05-14T02:19:11.635Z,99647.67
2019-05-14T02:21:42.497Z,99644.66
2019-05-14T02:24:11.474Z,99636.08
2019-05-14T02:26:42.497Z,99634.41
2019-05-14T02:29:12.475Z,99633.38
2019-05-14T02:31:41.503Z,99640.05
2019-05-14T02:34:10.528Z,99649.95
2019-05-14T02:36:40.103Z,99646.72
2019-05-14T02:39:10.124Z,99642.61
2019-05-14T02:41:39.475Z,99634.20
2019-05-14T02:44:09.972Z,99619.97
2019-05-14T02:46:40.475Z,99615.64
2019-05-14T02:49:10.450Z,99627.74
2019-05-14T02:51:39.661Z,99640.97
2019-05-14T02:54:10.032Z,99649.24
2019-05-14T02:56:44.331Z,99661.12
2019-05-14T02:59:19.815Z,99659.03
2019-05-14T03:01:58.884Z,99658.12
2019-05-14T03:04:26.197Z,99660.77
2019-05-14T03:06:54.918Z,99660.28
2019-05-14T03:09:23.754Z,99651.34
2019-05-14T03:11:52.710Z,99655.59
2019-05-14T03:14:21.451Z,99646.48
2019-05-14T03:16:50.288Z,99633.56
2019-05-14T03:19:19.772Z,99639.48
2019-05-14T03:21:50.066Z,99627.28
2019-05-14T03:24:19.720Z,99627.20
2019-05-14T03:26:49.969Z,99615.79
2019-05-14T03:29:19.652Z,99619.20
2019-05-14T03:31:52.449Z,99630.80
2019-05-14T03:34:22.040Z,99641.05
2019-05-14T03:36:52.885Z,99655.34
2019-05-14T03:39:20.112Z,99650.56
2019-05-14T03:41:49.957Z,99653.79
2019-05-14T03:44:19.974Z,99664.39
2019-05-14T03:46:54.718Z,99671.56
2019-05-14T03:49:20.053Z,99668.27
2019-05-14T03:51:49.802Z,99655.38
2019-05-14T03:54:19.595Z,99659.39
2019-05-14T03:56:49.609Z,99648.97
2019-05-14T03:59:19.921Z,99640.41
2019-05-14T04:01:50.982Z,99644.80
2019-05-14T04:04:19.899Z,99644.66
2019-05-14T04:06:49.939Z,99640.92
2019-05-14T04:09:20.674Z,99630.80
2019-05-14T04:11:51.179Z,99637.67
2019-05-14T04:14:22.798Z,99634.36
2019-05-14T04:17:08.028Z,99632.98
2019-05-14T04:19:24.972Z,99636.47
2019-05-14T04:21:54.758Z,99638.00
2019-05-14T04:24:24.444Z,99651.05
2019-05-14T04:27:03.424Z,99641.46
2019-05-14T04:29:30.718Z,99626.41
2019-05-14T04:32:00.340Z,99617.97
2019-05-14T04:34:30.154Z,99614.02
2019-05-14T04:36:59.645Z,99612.14
2019-05-14T04:39:30.728Z,99604.47
2019-05-14T04:42:00.038Z,99608.73
2019-05-14T04:44:29.919Z,99608.36
2019-05-14T04:46:59.955Z,99611.32
2019-05-14T04:49:29.445Z,99615.27
2019-05-14T04:51:59.594Z,99617.77
2019-05-14T04:54:30.239Z,99635.32
2019-05-14T04:57:00.152Z,99643.91
2019-05-14T04:59:29.913Z,99663.19
2019-05-14T05:02:00.086Z,99676.59
2019-05-14T05:04:29.797Z,99676.16
2019-05-14T05:06:59.431Z,99687.40
2019-05-14T05:09:29.264Z,99696.34
2019-05-14T05:11:59.760Z,99689.55
2019-05-14T05:14:29.658Z,99679.97
2019-05-14T05:16:59.744Z,99673.23
2019-05-14T05:19:29.164Z,99661.88
2019-05-14T05:21:58.706Z,99671.77
2019-05-14T05:24:28.733Z,99664.34
2019-05-14T05:26:58.574Z,99663.73
2019-05-14T05:29:28.606Z,99665.80
2019-05-14T05:31:59.413Z,99667.51
2019-05-14T05:34:28.428Z,99663.78
2019-05-14T05:36:59.244Z,99662.47
2019-05-14T05:39:28.375Z,99670.34
2019-05-14T05:41:58.510Z,99671.14
2019-05-14T05:44:28.709Z,99664.54
2019-05-14T05:46:59.733Z,99668.59
2019-05-14T05:49:29.125Z,99672.08
2019-05-14T05:51:59.191Z,99672.82
2019-05-14T05:54:29.221Z,99673.59
2019-05-14T05:56:58.341Z,99667.44
2019-05-14T05:59:29.337Z,99671.83
2019-05-14T06:01:58.632Z,99679.88
2019-05-14T06:04:29.060Z,99681.36
2019-05-14T06:06:59.058Z,99680.82
2019-05-14T06:09:28.810Z,99687.45
2019-05-14T06:11:59.225Z,99690.94
2019-05-14T06:14:29.144Z,99686.13
2019-05-14T06:16:59.068Z,99679.31
2019-05-14T06:19:29.019Z,99680.63
2019-05-14T06:21:59.657Z,99694.71
2019-05-14T06:24:28.748Z,99685.52
2019-05-14T06:26:58.649Z,99689.45
2019-05-14T06:29:29.015Z,99676.70
2019-05-14T06:31:58.912Z,99676.86
2019-05-14T06:34:29.108Z,99675.47
2019-05-14T06:36:59.120Z,99677.86
2019-05-14T06:39:28.628Z,99675.91
2019-05-14T06:41:58.560Z,99669.22
2019-05-14T06:44:29.402Z,99670.45
2019-05-14T06:46:59.111Z,99682.80
2019-05-14T06:49:28.981Z,99700.83
2019-05-14T06:51:59.490Z,99714.13
2019-05-14T06:54:29.330Z,99710.09
2019-05-14T06:56:58.443Z,99721.61
2019-05-14T06:59:28.740Z,99718.70
2019-05-14T07:01:58.194Z,99704.16
2019-05-14T07:04:28.863Z,99723.23
2019-05-14T07:06:59.144Z,99695.95
2019-05-14T07:09:28.984Z,99690.16
2019-05-14T07:11:58.606Z,99674.25
2019-05-14T07:14:28.315Z,99650.59
2019-05-14T07:16:58.918Z,99652.03
2019-05-14T07:19:29.359Z,99646.30
2019-05-14T07:21:58.463Z,99651.47
2019-05-14T07:24:28.273Z,99657.06
2019-05-14T07:26:58.710Z,99645.22
2019-05-14T07:29:29.275Z,99639.10
2019-05-14T07:31:59.336Z,99628.98
2019-05-14T07:34:28.489Z,99622.05
2019-05-14T07:36:58.732Z,99603.88
2019-05-14T07:39:29.094Z,99608.81
2019-05-14T07:41:59.097Z,99616.29
2019-05-14T07:44:29.643Z,99622.66
2019-05-14T07:46:59.027Z,99630.80
2019-05-14T07:49:29.677Z,99635.48
2019-05-14T07:52:01.123Z,99639.31
2019-05-14T07:54:29.940Z,99644.20
2019-05-14T07:56:59.166Z,99643.86
2019-05-14T07:59:34.771Z,99634.00
2019-05-14T08:02:03.643Z,99630.52
2019-05-14T08:04:32.380Z,99639.55
2019-05-14T08:07:01.119Z,99654.89
2019-05-14T08:09:29.932Z,99656.27
2019-05-14T08:11:58.927Z,99656.73
2019-05-14T08:14:29.378Z,99676.92
2019-05-14T08:16:59.519Z,99678.47
2019-05-14T08:19:31.525Z,99679.59
2019-05-14T08:21:59.142Z,99734.54
2019-05-14T08:24:30.110Z,99735.77
2019-05-14T08:26:58.521Z,99700.60
2019-05-14T08:29:28.641Z,99682.67
2019-05-14T08:31:58.234Z,99670.84
2019-05-14T08:34:30.419Z,99663.49
2019-05-14T08:36:58.929Z,99662.07
2019-05-14T08:39:28.559Z,99654.96
2019-05-14T08:42:03.674Z,99652.05
2019-05-14T08:44:29.363Z,99643.25
2019-05-14T08:46:59.007Z,99641.64
2019-05-14T08:49:38.968Z,99622.94
2019-05-14T08:51:59.494Z,99611.31
2019-05-14T08:54:28.581Z,99603.13
2019-05-14T08:56:58.452Z,99639.67
2019-05-14T08:59:28.626Z,99635.73
2019-05-14T09:02:05.834Z,99624.35
2019-05-14T09:04:30.160Z,99603.02
2019-05-14T09:06:58.678Z,99591.19
2019-05-14T09:09:29.073Z,99575.39
2019-05-14T09:12:00.331Z,99566.17
2019-05-14T09:14:29.183Z,99573.80
2019-05-14T09:17:00.142Z,99590.22
2019-05-14T09:19:30.529Z,99596.00
2019-05-14T09:21:59.410Z,99581.00
2019-05-14T09:24:29.413Z,99577.39
2019-05-14T09:26:59.240Z,99574.11
2019-05-14T09:29:29.714Z,99574.06
2019-05-14T09:31:59.310Z,99567.58
2019-05-14T09:34:29.121Z,99569.78
2019-05-14T09:36:59.343Z,99556.80
2019-05-14T09:39:31.458Z,99552.98
2019-05-14T09:42:01.643Z,99563.73
2019-05-14T09:44:30.412Z,99564.31
2019-05-14T09:46:59.550Z,99536.39
2019-05-14T09:49:28.409Z,99521.66
2019-05-14T09:51:58.592Z,99496.08
2019-05-14T09:54:28.805Z,99511.32
2019-05-14T09:56:59.185Z,99537.41
2019-05-14T09:59:28.458Z,99535.55
2019-05-14T10:01:58.524Z,99509.73
2019-05-14T10:04:27.589Z,99514.82
2019-05-14T10:06:59.063Z,99549.14
2019-05-14T10:09:28.974Z,99563.76
2019-05-14T10:11:58.080Z,99568.77
2019-05-14T10:14:29.612Z,99565.11
2019-05-14T10:16:58.313Z,99578.86
2019-05-14T10:19:29.642Z,99582.59
2019-05-14T10:21:58.842Z,99570.83
2019-05-14T10:24:29.099Z,99575.45
2019-05-14T10:26:58.647Z,99576.01
2019-05-14T10:29:28.615Z,99575.65
2019-05-14T10:31:59.212Z,99553.30
2019-05-14T10:34:28.717Z,99548.91
2019-05-14T10:36:59.074Z,99529.96
2019-05-14T10:39:29.877Z,99525.89
2019-05-14T10:41:58.587Z,99537.85
2019-05-14T10:44:29.317Z,99542.00
2019-05-14T10:46:58.274Z,99523.75
2019-05-14T10:49:29.744Z,99515.81
2019-05-14T10:51:58.576Z,99501.52
2019-05-14T10:54:29.242Z,99500.55
2019-05-14T10:56:59.088Z,99507.03
2019-05-14T10:59:31.261Z,99515.07
2019-05-14T11:19:05.210Z,99486.92
2019-05-14T11:21:34.011Z,99485.73
2019-05-14T11:24:05.794Z,99482.91
2019-05-14T11:26:35.163Z,99481.72
2019-05-14T11:29:03.872Z,99467.94
2019-05-14T11:31:34.375Z,99457.66
2019-05-14T11:34:04.076Z,99463.11
2019-05-14T11:36:32.832Z,99466.05
2019-05-14T11:39:04.131Z,99474.44
2019-05-14T11:41:32.076Z,99472.09
2019-05-14T11:44:00.803Z,99466.62
2019-05-14T11:46:43.613Z,99458.75
2019-05-14T11:49:00.148Z,99448.89
2019-05-14T11:51:54.713Z,99459.55
2019-05-14T11:53:59.339Z,99455.89
2019-05-14T11:56:29.447Z,99461.20
2019-05-14T11:58:59.062Z,99460.81
2019-05-14T12:01:29.780Z,99464.19
2019-05-14T12:03:59.734Z,99453.78
2019-05-14T12:06:30.418Z,99461.95
2019-05-14T12:08:59.177Z,99457.32
2019-05-14T12:11:29.080Z,99456.33
2019-05-14T12:13:59.880Z,99459.59
2019-05-14T12:16:29.238Z,99462.93
2019-05-14T12:18:59.123Z,99454.34
2019-05-14T12:21:28.872Z,99451.91
2019-05-14T12:24:04.022Z,99445.57
2019-05-14T12:26:28.471Z,99441.59
2019-05-14T12:28:59.456Z,99441.38
2019-05-14T12:31:28.905Z,99435.11
2019-05-14T12:33:58.427Z,99435.11
2019-05-14T12:36:29.242Z,99425.84
2019-05-14T12:38:59.165Z,99417.39
2019-05-14T12:41:38.239Z,99412.08
2019-05-14T13:13:19.730Z,99375.45
2019-05-14T13:15:48.590Z,99368.73
2019-05-14T13:18:19.329Z,99365.97
2019-05-14T13:20:48.255Z,99366.98
2019-05-14T13:23:18.382Z,99372.88
2019-05-14T13:25:47.250Z,99361.67
2019-05-14T13:28:16.088Z,99354.37
2019-05-14T13:30:44.819Z,99355.63
2019-05-14T13:33:13.541Z,99345.00
2019-05-14T13:35:42.492Z,99343.19
2019-05-14T13:38:14.308Z,99340.25
2019-05-14T13:40:41.672Z,99331.37
2019-05-14T13:43:14.407Z,99336.30
2019-05-14T13:45:41.964Z,99334.00
2019-05-14T13:48:10.690Z,99328.39
2019-05-14T13:50:40.253Z,99327.41
2019-05-14T13:53:12.757Z,99327.09
2019-05-14T13:55:46.238Z,99322.42
2019-05-14T13:58:10.166Z,99316.47
2019-05-14T14:00:38.910Z,99318.23
2019-05-14T14:03:10.079Z,99311.32
2019-05-14T14:05:39.201Z,99311.43
2019-05-14T14:08:08.774Z,99313.88
2019-05-14T14:10:44.802Z,99312.36
2019-05-14T14:13:11.155Z,99301.09
2019-05-14T14:15:38.963Z,99302.17
2019-05-14T14:18:07.691Z,99301.06
2019-05-14T14:20:39.248Z,99299.83
2019-05-14T14:23:18.933Z,99288.33
2019-05-14T14:25:39.486Z,99293.02
2019-05-14T14:31:44.996Z,99284.95
2019-05-14T14:34:13.724Z,99289.77
2019-05-14T14:36:42.454Z,99288.17
2019-05-14T14:39:11.265Z,99279.50
2019-05-14T14:41:40.023Z,99271.59
2019-05-14T14:44:09.065Z,99271.66
2019-05-14T14:46:39.139Z,99268.23
2019-05-14T14:49:10.923Z,99269.16
2019-05-14T14:51:44.033Z,99255.33
2019-05-14T14:54:15.238Z,99256.30
2019-05-14T14:56:39.590Z,99252.08
2019-05-14T14:59:09.535Z,99250.81
2019-05-14T15:01:40.258Z,99254.69
2019-05-14T15:04:13.629Z,99246.08
2019-05-14T15:06:39.996Z,99249.68
2019-05-14T15:09:09.712Z,99256.34
2019-05-14T15:11:39.599Z,99258.91
2019-05-14T15:14:08.646Z,99254.34
2019-05-14T15:16:39.146Z,99248.91
2019-05-14T15:19:09.497Z,99244.00
2019-05-14T15:21:38.349Z,99240.34
2019-05-14T15:24:15.168Z,99233.94
2019-05-14T15:26:37.595Z,99238.92
2019-05-14T15:29:09.673Z,99231.17
2019-05-14T15:31:38.599Z,99221.41
2019-05-14T15:34:08.979Z,99219.25
2019-05-14T15:36:41.243Z,99215.71
2019-05-14T15:39:10.081Z,99206.71
2019-05-14T15:41:39.501Z,99196.05
2019-05-14T15:44:09.008Z,99191.70
2019-05-14T15:46:41.919Z,99192.89
2019-05-14T15:49:09.113Z,99193.00
2019-05-14T15:51:39.780Z,99191.78
2019-05-14T15:54:34.533Z,99189.28
2019-05-14T15:56:39.469Z,99184.42
2019-05-14T15:59:08.851Z,99174.09
2019-05-14T16:01:39.794Z,99176.64
2019-05-14T16:04:11.413Z,99172.70
2019-05-14T16:06:38.753Z,99170.72
2019-05-14T16:09:07.830Z,99172.41
2019-05-14T16:11:39.168Z,99174.70
2019-05-14T16:14:08.233Z,99172.75
2019-05-14T16:16:39.215Z,99179.22
2019-05-14T16:19:08.362Z,99183.71
2019-05-14T16:21:38.623Z,99180.28
2019-05-14T16:24:08.299Z,99173.41
2019-05-14T16:26:38.370Z,99180.03
2019-05-14T16:29:08.888Z,99186.53
2019-05-14T16:31:43.230Z,99190.29
2019-05-14T16:34:09.809Z,99195.77
2019-05-14T16:36:41.336Z,99201.51
2019-05-14T16:39:09.791Z,99198.23
2019-05-14T16:41:39.050Z,99203.52
2019-05-14T16:44:09.061Z,99195.34
2019-05-14T16:46:38.563Z,99199.53
2019-05-14T16:49:08.947Z,99203.77
2019-05-14T16:51:37.865Z,99203.91
2019-05-14T16:54:06.662Z,99209.56
2019-05-14T16:56:35.403Z,99198.99
2019-05-14T16:59:04.154Z,99203.64
2019-05-14T17:01:33.944Z,99201.92
2019-05-14T17:04:04.733Z,99204.86
2019-05-14T17:06:34.849Z,99187.29
2019-05-14T17:09:05.073Z,99199.62
2019-05-14T17:11:33.784Z,99197.20
2019-05-14T17:14:02.607Z,99193.87
2019-05-14T17:16:31.472Z,99192.60
2019-05-14T17:19:00.231Z,99178.55
2019-05-14T17:21:28.957Z,99184.91
2019-05-14T17:23:58.150Z,99178.16
2019-05-14T17:26:28.772Z,99171.76
2019-05-14T17:28:59.671Z,99169.83
2019-05-14T17:31:30.914Z,99167.20
2019-05-14T17:33:58.723Z,99167.84
2019-05-14T17:36:28.286Z,99167.36
2019-05-14T17:38:58.625Z,99164.51
2019-05-14T17:41:27.501Z,99159.92
2019-05-14T17:43:58.461Z,99168.55
2019-05-14T17:46:28.925Z,99164.78
2019-05-14T17:48:59.114Z,99163.88
2019-05-14T17:51:28.428Z,99158.05
2019-05-14T17:53:58.667Z,99159.98
2019-05-14T17:56:28.394Z,99163.20
2019-05-14T17:58:57.938Z,99161.70
2019-05-14T18:01:29.006Z,99160.97
2019-05-14T18:03:58.471Z,99171.94
2019-05-14T18:06:28.573Z,99181.23
2019-05-14T18:08:58.680Z,99177.59
2019-05-14T18:11:28.405Z,99177.76
2019-05-14T18:13:58.970Z,99184.22
2019-05-14T18:16:28.504Z,99186.56
2019-05-14T18:18:58.319Z,99190.20
2019-05-14T18:21:28.504Z,99189.42
2019-05-14T18:23:58.599Z,99186.70
2019-05-14T18:26:38.588Z,99192.72
2019-05-14T18:29:08.749Z,99193.81
2019-05-14T18:31:44.571Z,99190.64
2019-05-14T18:34:08.122Z,99195.27
2019-05-14T18:36:39.519Z,99193.84
2019-05-14T18:39:09.258Z,99195.16
2019-05-14T18:41:39.461Z,99197.02
2019-05-14T18:44:08.521Z,99193.95
2019-05-14T18:46:39.408Z,99200.30
2019-05-14T18:49:08.790Z,99192.30
2019-05-14T18:51:37.643Z,99189.88
2019-05-14T18:54:08.015Z,99188.55
2019-05-14T18:56:38.401Z,99182.74
2019-05-14T18:59:09.089Z,99186.38
2019-05-14T19:01:39.722Z,99189.23
2019-05-14T19:04:08.376Z,99196.13
2019-05-14T19:06:38.887Z,99193.94
2019-05-14T19:09:10.705Z,99198.76
2019-05-14T19:11:39.107Z,99207.20
2019-05-14T19:14:09.001Z,99204.14
2019-05-14T19:16:38.465Z,99206.33
2019-05-14T19:19:08.091Z,99217.52
2019-05-14T19:21:38.239Z,99216.84
2019-05-14T19:24:09.068Z,99216.15
2019-05-14T19:26:40.311Z,99219.22
2019-05-14T19:29:08.752Z,99216.69
2019-05-14T19:31:38.670Z,99226.67
2019-05-14T19:34:08.499Z,99216.69
2019-05-14T19:36:39.765Z,99219.52
2019-05-14T19:39:08.568Z,99214.26
2019-05-14T19:41:38.915Z,99219.48
2019-05-14T19:44:08.792Z,99222.78
2019-05-14T19:46:38.615Z,99223.80
2019-05-14T19:49:08.162Z,99221.07
2019-05-14T19:51:38.699Z,99220.22
2019-05-14T19:54:08.256Z,99222.21
2019-05-14T19:56:51.889Z,99213.46
2019-05-14T19:59:09.076Z,99221.38
2019-05-14T20:01:38.694Z,99210.19
2019-05-14T20:04:09.526Z,99209.61
2019-05-14T20:06:38.857Z,99215.34
2019-05-14T20:09:09.562Z,99210.06
2019-05-14T20:11:39.634Z,99207.22
2019-05-14T20:14:08.899Z,99210.48
2019-05-14T20:16:39.226Z,99206.55
2019-05-14T20:19:08.808Z,99202.83
2019-05-14T20:21:38.960Z,99205.36
2019-05-14T20:24:07.929Z,99209.83
2019-05-14T20:26:38.883Z,99210.61
2019-05-14T20:29:08.721Z,99211.72
2019-05-14T20:31:38.984Z,99206.56
2019-05-14T20:34:08.469Z,99209.52
2019-05-14T20:36:39.040Z,99204.04
2019-05-14T20:39:08.662Z,99206.88
2019-05-14T20:41:38.507Z,99203.27
2019-05-14T20:44:07.592Z,99212.16
2019-05-14T20:46:38.259Z,99211.27
2019-05-14T20:49:08.862Z,99213.58
2019-05-14T20:51:38.907Z,99220.30
2019-05-14T20:54:08.912Z,99212.15
2019-05-14T20:56:39.992Z,99216.22
2019-05-14T20:59:08.424Z,99209.84
2019-05-14T21:01:38.685Z,99210.93
2019-05-14T21:04:09.024Z,99217.43
2019-05-14T21:06:39.024Z,99204.91
2019-05-14T21:09:08.060Z,99204.25
2019-05-14T21:11:38.414Z,99207.20
2019-05-14T21:14:08.918Z,99207.55
2019-05-14T21:16:39.267Z,99209.63
2019-05-14T21:19:08.618Z,99201.39
2019-05-14T21:21:38.305Z,99212.70
2019-05-14T21:24:10.097Z,99205.89
2019-05-14T21:26:40.125Z,99206.67
2019-05-14T21:29:09.205Z,99203.70
2019-05-14T21:31:38.479Z,99202.70
2019-05-14T21:34:08.193Z,99203.16
2019-05-14T21:36:39.104Z,99198.78
2019-05-14T21:39:08.092Z,99199.21
2019-05-14T21:41:38.726Z,99198.31
2019-05-14T21:44:08.559Z,99205.67
2019-05-14T21:46:39.821Z,99198.08
2019-05-14T21:49:11.131Z,99194.69
2019-05-14T21:51:39.472Z,99197.73
2019-05-14T21:54:09.451Z,99196.48
2019-05-14T21:56:38.805Z,99199.11
2019-05-14T21:59:09.595Z,99195.70
2019-05-14T22:01:39.326Z,99198.63
2019-05-14T22:04:11.476Z,99198.73
2019-05-14T22:06:41.272Z,99186.60
2019-05-14T22:09:10.207Z,99184.17
2019-05-14T22:11:39.452Z,99185.97
2019-05-14T22:14:08.512Z,99184.89
2019-05-14T22:16:38.073Z,99183.80
2019-05-14T22:19:08.478Z,99178.11
2019-05-14T22:21:38.583Z,99180.87
2019-05-14T22:24:07.904Z,99170.11
2019-05-14T22:26:38.754Z,99171.89
2019-05-14T22:29:08.342Z,99168.91
2019-05-14T22:31:38.745Z,99178.78
2019-05-14T22:34:08.927Z,99183.96
2019-05-14T22:36:38.647Z,99181.44
2019-05-14T22:39:07.607Z,99175.17
2019-05-14T22:41:38.307Z,99174.62
2019-05-14T22:44:09.066Z,99180.99
2019-05-14T22:46:39.964Z,99181.98
2019-05-14T22:49:09.208Z,99183.08
2019-05-14T22:51:38.535Z,99185.81
2019-05-14T22:54:08.726Z,99179.77
2019-05-14T22:56:38.926Z,99175.48
2019-05-14T22:59:08.011Z,99172.39
2019-05-14T23:01:38.640Z,99176.55
2019-05-14T23:04:08.997Z,99183.22
2019-05-14T23:06:38.378Z,99177.17
2019-05-14T23:09:09.046Z,99178.95
2019-05-14T23:11:38.450Z,99179.30
2019-05-14T23:14:07.626Z,99182.02
2019-05-14T23:16:39.245Z,99182.88
2019-05-14T23:19:07.964Z,99177.56
2019-05-14T23:21:39.094Z,99178.88
2019-05-14T23:24:09.203Z,99175.39
2019-05-14T23:26:38.159Z,99171.86
2019-05-14T23:29:07.065Z,99174.93
2019-05-14T23:31:38.244Z,99178.06
2019-05-14T23:34:06.605Z,99187.60
2019-05-14T23:36:35.803Z,99188.80
2019-05-14T23:39:08.869Z,99189.69
2019-05-14T23:41:38.319Z,99194.27
2019-05-14T23:44:08.351Z,99196.36
2019-05-14T23:46:37.497Z,99198.03
2019-05-14T23:49:08.741Z,99198.26
2019-05-14T23:51:38.516Z,99193.22
2019-05-14T23:54:08.776Z,99184.53
2019-05-14T23:56:38.388Z,99188.38
2019-05-14T23:59:09.310Z,99187.48
